< < Back
Terminal Aerodrome Forecast


Current Version              Previous Versions:   1  2  3  4  5  6  7  8  9  

Terminal Aerodrome Forecast

790
FTUS42 KMLB 311138
TAFMCO
TAF
KMCO 311138Z 3112/0112 21003KT P6SM FEW150
     FM311400 26005KT P6SM FEW025 SCT035 SCT120
     FM312000 08008KT P6SM VCTS SCT035CB BKN250
     FM010000 14005KT P6SM FEW035 SCT100 BKN250=

Latest METAR

745
SAUS70 KWBC 311400
MTRMCO
METAR KMCO 311353Z 31003KT 10SM FEW020 FEW280 27/21 A2998 RMK AO2 SLP151
T02720211 $


USA.gov is the U.S. government's official web portal to all federal, state and local government web resources and services.